18:52
Airports
History
Links
Donate
Help keep this website running!
PayPal
Bitcoin
This page is community maintained. The information is intended for PC simulator navigation or reference.
Always use approved charts for navigation.
LIRH
Frosinone
Frosinone (LIRH)
Frosinone, Lazio, Italy (3100)
4
Lat/Lng:41° 38' 45" N / 13° 18' 0" E
41.645832 / 13.3
Elevation:645'ft / 197mMSL
ID / ICAO:LIRH
Runways:1
Longest:34-16
Dirt 1,432m / 4,699ft
METAR17:55 GMT 2017-09-19
Altimeter: 29.83
Visibility: 6.2 statute miles
Wind: 6 knots (from 310°)
Temp: 17°c / 63°f
Humidity: 67.7%

METAR: LIRH 191755Z 31006KT 9999 SCT035TCU 17/11 Q1010

(Powered by phpweather)
Nearby VORs <50NM
Nearby NDBs
Runway 34 / 16
Dimensions:1432.3 x 39.9m 4699' x 131'ft
Surface:Dirt
Runway 34 [A]Runway 16 [B]
Heading:342°TH 162°TH
Lat:
Lng:
41° 38' 22.95"N
13° 18' 9.58"E
41° 39' 7.04"N
13° 17' 50.42"E
User Notes and Comments
41° 38' 45" N / 13° 18' 0" E
Distance To
Airport ID:
Nearby Airports
(C) LATINA 21.4 NM
LIRL ( WX ) WSW 250°
(U) Aquino 24.3 NM
LIAQ ESE 117°
(C) GUIDONIA 37.5 NM
LIRG ( WX ) NW 309°
(C) CIAMPINO 37.9 NM
LIRA ( WX ) WNW 286°
(C) Pratica Di Mare 44.1 NM
LIRE ( WX ) W 270°
(C) Urbe 46.2 NM
LIRU ( WX ) WNW 297°
(C) Aeroporto dei Parchi 50.7 NM
LIAP N
VFR Chart
Flight Planning at SkyVector.com